Time;durP1;ratioP1;P1;durP2;ratioP2;P2;SDS_P1;SDS_P2;PMS_P1;PMS_P2;Temp;Humidity;BMP_temperature;BMP_pressure;BME280_temperature;BME280_humidity;BME280_pressure;Samples;Min_cycle;Max_cycle;Signal;HPM_P1;HPM_P2
2022/09/09 04:22:58;;;;;;;;;;;;;;;17.47;63.22;99439.28;1089171;46;20093;-82
2022/09/09 04:24:04;;;;;;;;;;;;;;;17.50;62.61;99436.13;1087796;54;19954;-83
2022/09/09 04:25:10;;;;;;;;;;;;;;;17.48;62.58;99431.97;1087761;54;19949;-81
2022/09/09 04:26:11;;;;;;;;;;;;;;;17.46;62.71;99432.19;1087873;54;19942;-80
2022/09/09 04:27:15;;;;;;;;;;;;;;;17.39;62.90;99432.19;1087895;54;19938;-79
2022/09/09 04:28:16;;;;;;;;;;;;;;;17.30;63.42;99426.13;1088064;46;19946;-80
2022/09/09 04:29:20;;;;;;;;;;;;;;;17.37;62.90;99428.84;1087888;54;19987;-79
2022/09/09 04:30:21;;;;;;;;;;;;;;;17.36;63.03;99435.28;1088618;46;19945;-80
2022/09/09 04:31:25;;;;;;;;;;;;;;;17.42;62.60;99430.94;1090386;46;20163;-80
2022/09/09 04:32:27;;;;;;;;;;;;;;;17.41;62.72;99431.97;1088653;46;20054;-78
2022/09/09 04:33:31;;;;;;;;;;;;;;;17.42;62.77;99433.63;1089928;46;19949;-82
2022/09/09 04:34:35;;;;;;;;;;;;;;;17.43;62.66;99432.59;1089768;46;19946;-77
2022/09/09 04:35:36;;;;;;;;;;;;;;;17.44;62.79;99434.25;1087777;46;21079;-77
2022/09/09 04:36:40;;;;;;;;;;;;;;;17.48;62.63;99429.28;1087636;54;19998;-77
2022/09/09 04:37:41;;;;;;;;;;;;;;;17.47;62.78;99428.47;1088937;46;19943;-81
2022/09/09 04:38:45;;;;;;;;;;;;;;;17.46;62.58;99426.78;1087689;54;19943;-76
2022/09/09 04:39:49;;;;;;;;;;;;;;;17.46;62.36;99426.78;1087742;54;19965;-77
2022/09/09 04:40:54;;;;;;;;;;;;;;;17.37;62.77;99438.84;1087731;54;19939;-80
2022/09/09 04:41:58;;;;;;;;;;;;;;;17.38;62.71;99437.78;1087509;54;19998;-77
2022/09/09 04:42:59;;;;;;;;;;;;;;;17.42;62.66;99434.47;1089319;46;19954;-78
2022/09/09 04:44:03;;;;;;;;;;;;;;;17.44;62.59;99428.88;1087671;54;19943;-79
2022/09/09 04:45:07;;;;;;;;;;;;;;;17.41;62.51;99440.06;1090730;39;20560;-78
2022/09/09 04:46:10;;;;;;;;;;;;;;;17.35;62.51;99436.31;1087734;54;19954;-81
2022/09/09 04:47:12;;;;;;;;;;;;;;;17.30;62.85;99434.22;1087602;54;19950;-77
2022/09/09 04:49:19;;;;;;;;;;;;;;;17.24;62.90;99440.44;1087952;54;19949;-86
2022/09/09 04:50:20;;;;;;;;;;;;;;;17.23;63.09;99441.47;1089172;39;20140;-85
2022/09/09 04:51:24;;;;;;;;;;;;;;;17.23;63.00;99437.97;1086760;54;19950;-83
2022/09/09 04:52:25;;;;;;;;;;;;;;;17.23;62.99;99444.19;1087489;54;19950;-86
2022/09/09 04:53:29;;;;;;;;;;;;;;;17.10;63.18;99444.13;1087938;54;19950;-82
2022/09/09 04:55:39;;;;;;;;;;;;;;;17.04;63.56;99455.75;1087663;54;19934;-81
2022/09/09 04:56:43;;;;;;;;;;;;;;;17.19;62.96;99453.75;1087687;46;19946;-77
2022/09/09 04:57:44;;;;;;;;;;;;;;;17.26;62.82;99457.28;1087605;54;19950;-76
2022/09/09 05:01:57;;;;;;;;;;;;;;;17.26;63.23;99457.28;1087520;54;19939;-82
2022/09/09 05:03:02;;;;;;;;;;;;;;;17.29;63.26;99454.16;1087722;54;19951;-84
2022/09/09 05:04:05;;;;;;;;;;;;;;;17.36;63.24;99446.09;1091495;46;19958;-84
2022/09/09 05:05:07;;;;;;;;;;;;;;;17.40;62.69;99460.00;1087662;54;19943;-79
2022/09/09 05:06:12;;;;;;;;;;;;;;;17.43;62.43;99454.22;1089174;46;19948;-78
2022/09/09 05:07:14;;;;;;;;;;;;;;;17.45;62.36;99452.97;1087514;54;19955;-77
2022/09/09 05:08:18;;;;;;;;;;;;;;;17.45;62.23;99460.25;1087727;54;19989;-81
2022/09/09 05:10:31;;;;;;;;;;;;;;;17.51;61.94;99453.19;1085968;54;19943;-84
2022/09/09 05:11:36;;;;;;;;;;;;;;;17.49;62.25;99458.78;1087587;47;19949;-83
2022/09/09 05:12:40;;;;;;;;;;;;;;;17.47;62.20;99460.88;1087772;54;19965;-83
2022/09/09 05:13:41;;;;;;;;;;;;;;;17.49;61.87;99450.69;1087527;54;19942;-81
2022/09/09 05:14:45;;;;;;;;;;;;;;;17.45;62.28;99457.56;1087762;54;19938;-83
2022/09/09 05:15:51;;;;;;;;;;;;;;;17.40;62.27;99460.00;1087741;54;19943;-84
2022/09/09 05:16:55;;;;;;;;;;;;;;;17.48;62.19;99459.00;1087610;54;19950;-81
2022/09/09 05:17:57;;;;;;;;;;;;;;;17.48;61.97;99459.81;1087695;54;19966;-81
2022/09/09 05:19:03;;;;;;;;;;;;;;;17.52;61.50;99462.97;1087898;54;20680;-84
2022/09/09 05:20:04;;;;;;;;;;;;;;;17.53;61.67;99460.06;1087706;54;19943;-82
2022/09/09 05:21:11;;;;;;;;;;;;;;;17.55;61.37;99454.44;1087518;54;19942;-81
2022/09/09 05:22:12;;;;;;;;;;;;;;;17.58;61.41;99462.97;1089312;39;20475;-80
2022/09/09 05:23:16;;;;;;;;;;;;;;;17.56;61.18;99465.06;1087689;54;19954;-81
2022/09/09 05:24:22;;;;;;;;;;;;;;;17.44;61.96;99461.28;1087672;54;19994;-81
2022/09/09 05:25:25;;;;;;;;;;;;;;;17.51;61.47;99466.72;1087691;54;19957;-80
2022/09/09 05:26:31;;;;;;;;;;;;;;;17.55;61.20;99471.50;1088765;46;19943;-82
2022/09/09 05:27:36;;;;;;;;;;;;;;;17.48;61.91;99476.03;1087650;54;19965;-84
2022/09/09 05:28:40;;;;;;;;;;;;;;;17.40;61.85;99473.53;1087705;54;19966;-83
2022/09/09 05:31:51;;;;;;;;;;;;;;;17.37;61.91;99476.66;1087527;54;19995;-87
2022/09/09 05:32:55;;;;;;;;;;;;;;;17.44;61.81;99478.31;1087778;54;19950;-84
2022/09/09 05:34:01;;;;;;;;;;;;;;;17.36;61.97;99480.38;1087508;54;19949;-85
2022/09/09 05:35:03;;;;;;;;;;;;;;;17.44;61.54;99478.31;1087597;54;19969;-86
2022/09/09 05:36:07;;;;;;;;;;;;;;;17.50;61.36;99479.38;1087385;54;20587;-81
2022/09/09 05:37:08;;;;;;;;;;;;;;;17.46;61.59;99481.66;1087127;54;19975;-80
2022/09/09 05:38:12;;;;;;;;;;;;;;;17.49;61.65;99475.00;1087394;54;20015;-78
2022/09/09 05:39:13;;;;;;;;;;;;;;;17.52;61.26;99487.28;1087581;46;19927;-82
2022/09/09 05:40:17;;;;;;;;;;;;;;;17.54;61.19;99488.75;1087681;54;19942;-83
2022/09/09 05:41:19;;;;;;;;;;;;;;;17.52;61.41;99490.00;1087538;54;19942;-84
2022/09/09 05:42:23;;;;;;;;;;;;;;;17.49;61.50;99491.22;1087279;54;19939;-85
2022/09/09 05:43:27;;;;;;;;;;;;;;;17.52;61.46;99481.88;1089769;46;19934;-84
2022/09/09 05:44:31;;;;;;;;;;;;;;;17.48;61.57;99484.13;1087743;54;19943;-80
2022/09/09 05:45:32;;;;;;;;;;;;;;;17.46;61.52;99488.94;1087556;54;19966;-82
2022/09/09 05:46:35;;;;;;;;;;;;;;;17.51;61.54;99494.56;1087843;54;20617;-85
2022/09/09 05:47:37;;;;;;;;;;;;;;;17.54;61.29;99490.59;1088082;54;19949;-86
2022/09/09 05:48:41;;;;;;;;;;;;;;;17.43;61.87;99495.56;1087695;54;19950;-79
2022/09/09 05:49:42;;;;;;;;;;;;;;;17.43;61.92;99490.16;1087641;54;19942;-77
2022/09/09 05:50:55;;;;;;;;;;;;;;;17.48;61.49;99489.53;1087559;54;19945;-80
2022/09/09 05:51:58;;;;;;;;;;;;;;;17.48;61.63;99489.53;1087499;54;19942;-81
2022/09/09 05:52:59;;;;;;;;;;;;;;;17.55;61.32;99485.00;1087559;54;19934;-78
2022/09/09 05:54:03;;;;;;;;;;;;;;;17.51;61.46;99486.44;1087647;54;19942;-80
2022/09/09 05:55:05;;;;;;;;;;;;;;;17.44;61.78;99481.00;1087602;54;19965;-78
2022/09/09 05:56:10;;;;;;;;;;;;;;;17.49;61.39;99496.63;1087605;54;19942;-80
2022/09/09 05:57:14;;;;;;;;;;;;;;;17.53;61.59;99483.53;1087472;54;19954;-81
2022/09/09 05:58:16;;;;;;;;;;;;;;;17.51;61.63;99488.31;1087580;54;19949;-80
2022/09/09 05:59:23;;;;;;;;;;;;;;;17.50;61.30;99487.47;1087532;54;19954;-79
2022/09/09 06:00:24;;;;;;;;;;;;;;;17.41;61.73;99489.53;1087639;54;19943;-80
2022/09/09 06:01:28;;;;;;;;;;;;;;;17.27;62.28;99491.38;1087609;54;19950;-80
2022/09/09 06:02:30;;;;;;;;;;;;;;;17.45;61.96;99487.28;1087980;47;19950;-81
2022/09/09 06:03:33;;;;;;;;;;;;;;;17.52;61.63;99482.72;1087586;54;19943;-80
2022/09/09 06:04:34;;;;;;;;;;;;;;;17.53;61.20;99487.06;1087589;54;19942;-81
2022/09/09 06:05:38;;;;;;;;;;;;;;;17.51;61.59;99480.22;1087555;54;19949;-78
2022/09/09 06:06:39;;;;;;;;;;;;;;;17.48;61.82;99484.13;1087517;54;19943;-76
2022/09/09 06:07:44;;;;;;;;;;;;;;;17.52;61.43;99481.88;1087463;54;19943;-78
2022/09/09 06:08:45;;;;;;;;;;;;;;;17.52;61.08;99482.72;1087549;54;20614;-78
2022/09/09 06:09:51;;;;;;;;;;;;;;;17.52;61.58;99485.41;1087521;54;19965;-79
2022/09/09 06:10:52;;;;;;;;;;;;;;;17.58;61.67;99483.75;1087617;54;19943;-79
2022/09/09 06:11:57;;;;;;;;;;;;;;;17.55;61.62;99487.72;1087506;54;19942;-76
2022/09/09 06:12:59;;;;;;;;;;;;;;;17.61;61.29;99495.00;1087569;54;19949;-77
2022/09/09 06:14:02;;;;;;;;;;;;;;;17.62;61.05;99487.69;1087266;47;20677;-77
2022/09/09 06:15:08;;;;;;;;;;;;;;;17.68;60.94;99484.22;1088515;39;20544;-81
2022/09/09 06:16:13;;;;;;;;;;;;;;;17.71;61.13;99488.34;1087596;54;19965;-82
2022/09/09 06:17:17;;;;;;;;;;;;;;;17.70;61.23;99489.41;1087522;54;19946;-80
2022/09/09 06:18:18;;;;;;;;;;;;;;;17.73;61.03;99491.69;1087608;54;19946;-78
2022/09/09 06:19:24;;;;;;;;;;;;;;;17.75;61.22;99485.03;1087581;54;19942;-77
2022/09/09 06:20:25;;;;;;;;;;;;;;;17.78;60.75;99483.78;1087605;54;19942;-80
2022/09/09 06:21:29;;;;;;;;;;;;;;;17.82;60.77;99485.06;1087564;54;19942;-81
2022/09/09 06:22:31;;;;;;;;;;;;;;;17.83;60.55;99480.47;1087455;54;19939;-76
2022/09/09 06:23:35;;;;;;;;;;;;;;;17.85;60.38;99489.22;1087566;54;19942;-76
2022/09/09 06:24:36;;;;;;;;;;;;;;;17.85;60.23;99494.63;1087568;54;19950;-81
2022/09/09 06:25:40;;;;;;;;;;;;;;;17.87;60.29;99482.56;1087607;54;19996;-82
2022/09/09 06:26:41;;;;;;;;;;;;;;;17.92;60.48;99490.91;1087449;54;20042;-76
2022/09/09 06:27:45;;;;;;;;;;;;;;;17.92;59.94;99488.19;1087506;54;19943;-77
2022/09/09 06:28:48;;;;;;;;;;;;;;;17.93;60.57;99479.03;1087572;54;20645;-78
2022/09/09 06:29:51;;;;;;;;;;;;;;;17.95;60.55;99488.81;1087501;54;19939;-80
2022/09/09 06:30:59;;;;;;;;;;;;;;;17.99;60.05;99479.28;1087345;54;19962;-76
2022/09/09 06:32:03;;;;;;;;;;;;;;;18.01;60.39;99482.59;1089162;39;20195;-78
2022/09/09 06:33:04;;;;;;;;;;;;;;;17.97;60.42;99482.19;1087540;54;19949;-80
2022/09/09 06:34:09;;;;;;;;;;;;;;;17.92;60.55;99487.34;1087547;54;19950;-79
2022/09/09 06:35:10;;;;;;;;;;;;;;;17.86;60.81;99480.06;1087582;54;20661;-80
2022/09/09 06:36:15;;;;;;;;;;;;;;;17.82;60.96;99490.47;1087585;54;20003;-79
2022/09/09 06:37:16;;;;;;;;;;;;;;;17.75;60.89;99495.03;1087562;54;19966;-82
2022/09/09 06:38:21;;;;;;;;;;;;;;;17.78;61.10;99495.44;1093702;39;20550;-86
2022/09/09 06:39:25;;;;;;;;;;;;;;;17.86;60.69;99499.81;1087723;54;19986;-85
2022/09/09 06:40:26;;;;;;;;;;;;;;;17.86;60.90;99491.69;1088020;54;19943;-81
2022/09/09 06:41:31;;;;;;;;;;;;;;;17.95;60.63;99492.34;1088011;54;20006;-83
2022/09/09 06:42:32;;;;;;;;;;;;;;;17.99;60.65;99490.09;1087835;54;21061;-82
2022/09/09 06:43:35;;;;;;;;;;;;;;;18.10;60.31;99486.78;1087977;54;19934;-79
2022/09/09 06:44:36;;;;;;;;;;;;;;;18.17;60.22;99484.06;1090306;39;20548;-79
2022/09/09 06:45:40;;;;;;;;;;;;;;;18.19;60.05;99488.22;1092590;46;19999;-77
2022/09/09 06:46:47;;;;;;;;;;;;;;;18.15;59.99;99488.84;1088483;46;19938;-83
2022/09/09 06:47:52;;;;;;;;;;;;;;;18.10;59.90;99486.78;1088096;54;19998;-82
2022/09/09 06:48:55;;;;;;;;;;;;;;;18.15;60.02;99489.66;1090046;46;19943;-78
2022/09/09 06:49:58;;;;;;;;;;;;;;;18.17;59.58;99492.19;1088122;54;19949;-80
2022/09/09 06:51:00;;;;;;;;;;;;;;;18.22;60.10;99495.94;1087984;54;20300;-84
2022/09/09 06:52:04;;;;;;;;;;;;;;;18.16;60.33;99494.03;1087870;54;19966;-83
2022/09/09 06:53:05;;;;;;;;;;;;;;;18.09;60.12;99493.22;1088671;46;19970;-79
2022/09/09 06:54:09;;;;;;;;;;;;;;;18.21;59.91;99502.38;1087929;54;19946;-84
2022/09/09 06:55:10;;;;;;;;;;;;;;;18.15;60.21;99500.50;1087907;54;19942;-79
2022/09/09 06:56:21;;;;;;;;;;;;;;;18.12;60.28;99502.78;1087985;54;19947;-84
2022/09/09 06:57:25;;;;;;;;;;;;;;;18.05;60.49;99500.06;1087892;54;19943;-82
2022/09/09 06:58:26;;;;;;;;;;;;;;;18.14;60.32;99504.22;1087956;54;19943;-83
2022/09/09 06:59:30;;;;;;;;;;;;;;;18.27;60.28;99500.72;1088030;54;19957;-84
2022/09/09 07:00:31;;;;;;;;;;;;;;;18.30;59.83;99497.56;1087910;54;19973;-82
2022/09/09 07:01:36;;;;;;;;;;;;;;;18.35;59.88;99499.66;1087909;54;19951;-82
2022/09/09 07:02:40;;;;;;;;;;;;;;;18.39;59.91;99506.31;1087777;54;19943;-82
2022/09/09 07:03:47;;;;;;;;;;;;;;;18.42;59.42;99503.19;1087871;54;19949;-81
2022/09/09 07:04:51;;;;;;;;;;;;;;;18.38;59.55;99501.94;1087941;54;19942;-75
2022/09/09 07:05:56;;;;;;;;;;;;;;;18.33;60.08;99508.00;1087971;54;19966;-81
2022/09/09 07:07:00;;;;;;;;;;;;;;;18.33;59.57;99499.88;1087914;54;19942;-81
2022/09/09 07:08:02;;;;;;;;;;;;;;;18.39;59.24;99501.72;1089835;39;20581;-80
2022/09/09 07:09:07;;;;;;;;;;;;;;;18.35;59.78;99499.66;1087890;54;19981;-80
2022/09/09 07:10:09;;;;;;;;;;;;;;;18.42;59.13;99494.25;1087863;54;19943;-80
2022/09/09 07:11:13;;;;;;;;;;;;;;;18.50;58.82;99491.31;1087867;54;19943;-80
2022/09/09 07:12:14;;;;;;;;;;;;;;;18.53;58.85;99497.13;1087797;54;19942;-80
2022/09/09 07:13:21;;;;;;;;;;;;;;;18.53;58.81;99507.16;1087773;54;19982;-80
2022/09/09 07:14:24;;;;;;;;;;;;;;;18.55;58.70;99499.66;1087879;54;19942;-79
2022/09/09 07:15:26;;;;;;;;;;;;;;;18.62;58.55;99499.63;1087847;54;19950;-77
2022/09/09 07:16:31;;;;;;;;;;;;;;;18.68;58.10;99498.78;1087893;54;19942;-77
2022/09/09 07:17:32;;;;;;;;;;;;;;;18.74;57.76;99502.53;1087842;54;19949;-78
2022/09/09 07:18:39;;;;;;;;;;;;;;;18.75;58.11;99505.03;1087818;54;19951;-77
2022/09/09 07:19:40;;;;;;;;;;;;;;;18.83;57.75;99504.78;1087860;54;19942;-81
2022/09/09 07:20:44;;;;;;;;;;;;;;;18.69;57.97;99503.16;1087913;54;19990;-79
2022/09/09 07:21:45;;;;;;;;;;;;;;;18.60;58.13;99501.72;1087823;54;19943;-80
2022/09/09 07:22:48;;;;;;;;;;;;;;;18.52;58.60;99506.28;1088192;46;19939;-78
2022/09/09 07:23:51;;;;;;;;;;;;;;;18.58;58.09;99507.34;1089768;39;20588;-78
2022/09/09 07:24:55;;;;;;;;;;;;;;;18.71;58.04;99504.63;1089253;46;20668;-81
2022/09/09 07:25:56;;;;;;;;;;;;;;;18.77;57.83;99508.34;1088252;39;20541;-79
2022/09/09 07:26:59;;;;;;;;;;;;;;;18.74;58.07;99508.75;1088220;39;20593;-78
2022/09/09 07:28:01;;;;;;;;;;;;;;;18.79;57.83;99506.28;1088287;39;20616;-79
2022/09/09 07:29:05;;;;;;;;;;;;;;;18.89;57.63;99499.59;1087765;54;20601;-77
2022/09/09 07:30:07;;;;;;;;;;;;;;;18.92;57.54;99504.56;1087794;54;19943;-80
2022/09/09 07:31:16;;;;;;;;;;;;;;;18.90;57.72;99506.63;1087655;54;19935;-82
2022/09/09 07:32:19;;;;;;;;;;;;;;;18.82;57.60;99500.41;1087792;54;20479;-84
2022/09/09 07:33:23;;;;;;;;;;;;;;;18.80;57.70;99502.50;1088235;39;20828;-84
2022/09/09 07:34:27;;;;;;;;;;;;;;;18.80;57.80;99502.50;1087847;54;19938;-84
2022/09/09 07:35:31;;;;;;;;;;;;;;;18.95;57.49;99498.75;1087805;54;20564;-82
2022/09/09 07:36:36;;;;;;;;;;;;;;;19.04;57.32;99502.88;1092473;39;20977;-85
2022/09/09 07:37:37;;;;;;;;;;;;;;;19.10;57.49;99502.03;1089129;39;20517;-79
2022/09/09 07:38:43;;;;;;;;;;;;;;;19.11;57.21;99503.69;1087722;54;19946;-78
2022/09/09 07:39:44;;;;;;;;;;;;;;;19.21;57.05;99497.84;1087871;54;19949;-80
2022/09/09 07:40:48;;;;;;;;;;;;;;;19.26;56.96;99502.59;1091359;39;20884;-79
2022/09/09 07:41:49;;;;;;;;;;;;;;;19.23;56.67;99498.44;1087787;54;19927;-81
2022/09/09 07:42:53;;;;;;;;;;;;;;;19.32;56.63;99512.56;1087720;54;19942;-78
2022/09/09 07:43:54;;;;;;;;;;;;;;;19.39;56.66;99505.25;1087740;54;19987;-81
2022/09/09 07:44:59;;;;;;;;;;;;;;;19.45;56.45;99501.69;1087757;54;20765;-76
2022/09/09 07:46:01;;;;;;;;;;;;;;;19.43;56.32;99495.63;1087827;54;19943;-82
2022/09/09 07:47:05;;;;;;;;;;;;;;;19.39;56.35;99504.41;1087775;54;19950;-82
2022/09/09 07:48:06;;;;;;;;;;;;;;;19.23;56.33;99509.25;1087822;54;19942;-82
2022/09/09 07:49:11;;;;;;;;;;;;;;;19.22;56.66;99515.75;1088011;46;20971;-83
2022/09/09 07:50:15;;;;;;;;;;;;;;;19.26;56.83;99513.44;1087798;54;19951;-83
2022/09/09 07:51:19;;;;;;;;;;;;;;;19.29;56.74;99510.28;1087730;47;20592;-84
2022/09/09 07:52:23;;;;;;;;;;;;;;;19.38;56.41;99513.59;1087704;54;19955;-83
2022/09/09 07:53:24;;;;;;;;;;;;;;;19.32;56.66;99518.00;1087751;54;20658;-83
2022/09/09 07:54:28;;;;;;;;;;;;;;;19.32;56.92;99515.28;1087862;54;19942;-83
2022/09/09 07:55:30;;;;;;;;;;;;;;;19.56;56.54;99512.84;1087787;54;19949;-83
2022/09/09 07:56:33;;;;;;;;;;;;;;;19.66;56.13;99513.22;1087792;54;19950;-77
2022/09/09 07:57:35;;;;;;;;;;;;;;;19.76;55.70;99494.59;1087598;54;19935;-76
2022/09/09 07:58:39;;;;;;;;;;;;;;;19.86;55.19;99498.75;1087792;54;19942;-84
2022/09/09 07:59:42;;;;;;;;;;;;;;;19.90;55.67;99505.41;1087718;54;19951;-80
2022/09/09 08:00:43;;;;;;;;;;;;;;;19.92;55.49;99500.59;1088184;39;20620;-79
2022/09/09 08:01:48;;;;;;;;;;;;;;;19.80;55.71;99498.56;1087784;54;19995;-81
2022/09/09 08:02:49;;;;;;;;;;;;;;;19.85;55.58;99497.03;1089221;39;20530;-84
2022/09/09 08:03:56;;;;;;;;;;;;;;;19.76;55.46;99504.63;1087751;54;19949;-79
2022/09/09 08:04:59;;;;;;;;;;;;;;;19.84;55.50;99504.38;1087847;54;19943;-75
2022/09/09 08:06:06;;;;;;;;;;;;;;;19.82;55.25;99503.75;1087800;54;19950;-80
2022/09/09 08:07:10;;;;;;;;;;;;;;;20.02;55.14;99509.09;1088180;39;20670;-78
2022/09/09 08:08:11;;;;;;;;;;;;;;;20.15;54.88;99521.72;1087822;54;19965;-79
2022/09/09 08:09:15;;;;;;;;;;;;;;;20.35;54.55;99515.28;1089855;46;19967;-78
2022/09/09 08:10:17;;;;;;;;;;;;;;;20.66;54.03;99519.78;1087753;54;19943;-76
2022/09/09 08:11:22;;;;;;;;;;;;;;;20.42;54.33;99518.78;1087792;54;19946;-78
2022/09/09 08:12:23;;;;;;;;;;;;;;;20.54;54.14;99516.16;1088941;46;19999;-78
2022/09/09 08:13:27;;;;;;;;;;;;;;;20.65;54.34;99512.69;1087595;54;19946;-81
2022/09/09 08:14:29;;;;;;;;;;;;;;;20.63;53.83;99514.81;1087704;54;19954;-79
2022/09/09 08:15:34;;;;;;;;;;;;;;;20.66;53.94;99519.78;1091333;39;20535;-79
2022/09/09 08:16:39;;;;;;;;;;;;;;;20.96;52.84;99512.81;1087797;54;19943;-79
2022/09/09 08:17:40;;;;;;;;;;;;;;;20.97;52.72;99519.91;1087712;54;19954;-78
2022/09/09 08:18:44;;;;;;;;;;;;;;;20.98;52.83;99522.41;1087708;54;20744;-76
2022/09/09 08:19:48;;;;;;;;;;;;;;;20.93;52.72;99518.69;1087750;54;19967;-77
2022/09/09 08:20:49;;;;;;;;;;;;;;;20.83;52.77;99520.06;1087767;54;19959;-77
2022/09/09 08:21:56;;;;;;;;;;;;;;;20.86;52.58;99507.94;1087749;54;19990;-78
2022/09/09 08:22:58;;;;;;;;;;;;;;;21.08;52.46;99508.31;1088142;46;20613;-79
2022/09/09 08:24:02;;;;;;;;;;;;;;;21.00;51.99;99514.88;1087942;54;19954;-78
2022/09/09 08:25:06;;;;;;;;;;;;;;;21.15;51.67;99497.34;1089579;46;19949;-80
2022/09/09 08:26:12;;;;;;;;;;;;;;;21.25;51.81;99489.50;1090367;46;19939;-79
2022/09/09 08:27:13;;;;;;;;;;;;;;;21.74;51.06;99480.47;1094085;39;20640;-79
2022/09/09 08:28:17;;;;;;;;;;;;;;;21.94;49.97;99478.28;1088038;54;19942;-79
2022/09/09 08:29:21;;;;;;;;;;;;;;;22.17;49.78;99473.09;1087869;54;20759;-80
2022/09/09 08:30:22;;;;;;;;;;;;;;;22.17;48.55;99482.13;1087803;54;20292;-77
2022/09/09 08:31:27;;;;;;;;;;;;;;;22.02;48.74;99482.56;1089957;46;19998;-77
2022/09/09 08:32:31;;;;;;;;;;;;;;;21.92;48.92;99494.00;1087762;54;19942;-80
2022/09/09 08:33:33;;;;;;;;;;;;;;;21.76;49.26;99494.69;1087740;54;19942;-76
2022/09/09 08:34:36;;;;;;;;;;;;;;;21.93;49.40;99486.69;1087760;54;19927;-79
2022/09/09 08:35:38;;;;;;;;;;;;;;;22.10;48.76;99487.66;1090082;46;19943;-79
2022/09/09 08:36:43;;;;;;;;;;;;;;;22.03;49.22;99499.72;1087777;54;19990;-80
2022/09/09 08:37:46;;;;;;;;;;;;;;;21.89;49.62;99499.09;1087666;54;19995;-80
2022/09/09 08:38:51;;;;;;;;;;;;;;;21.78;50.02;99496.09;1087753;54;19943;-79
2022/09/09 08:39:56;;;;;;;;;;;;;;;21.60;50.21;99502.44;1087796;54;19942;-81
2022/09/09 08:41:03;;;;;;;;;;;;;;;21.75;50.46;99495.72;1087870;54;19942;-78
2022/09/09 08:42:21;;;;;;;;;;;;;;;21.79;50.14;99486.88;1088624;39;20573;-79
2022/09/09 08:43:24;;;;;;;;;;;;;;;21.56;50.60;99498.47;1087751;54;19966;-81
2022/09/09 08:44:33;;;;;;;;;;;;;;;21.56;50.69;99495.75;1087734;54;19949;-82
2022/09/09 08:45:41;;;;;;;;;;;;;;;21.68;50.28;99501.25;1090343;39;20561;-81
2022/09/09 08:46:46;;;;;;;;;;;;;;;21.70;49.80;99493.72;1087824;54;19966;-80
2022/09/09 08:47:57;;;;;;;;;;;;;;;21.97;49.55;99491.44;1088483;46;19943;-82
2022/09/09 08:49:02;;;;;;;;;;;;;;;21.98;48.47;99486.81;1087733;54;19931;-81
2022/09/09 08:50:11;;;;;;;;;;;;;;;21.87;47.94;99493.88;1087763;54;19942;-83
2022/09/09 08:51:13;;;;;;;;;;;;;;;22.08;47.48;99487.06;1087789;54;19942;-81
2022/09/09 08:52:19;;;;;;;;;;;;;;;22.08;47.07;99491.69;1087605;54;19942;-79
2022/09/09 08:53:25;;;;;;;;;;;;;;;22.20;46.58;99488.97;1087759;54;19950;-82
2022/09/09 08:54:31;;;;;;;;;;;;;;;22.18;46.03;99497.38;1088821;46;19942;-82
2022/09/09 08:55:41;;;;;;;;;;;;;;;22.18;45.58;99489.22;1087812;54;19943;-80
2022/09/09 08:56:42;;;;;;;;;;;;;;;22.37;45.43;99494.56;1087822;54;19973;-79
2022/09/09 08:57:46;;;;;;;;;;;;;;;22.08;45.64;99487.06;1087680;54;19938;-81
2022/09/09 08:58:51;;;;;;;;;;;;;;;22.01;45.46;99491.78;1087784;54;19949;-81
2022/09/09 08:59:54;;;;;;;;;;;;;;;21.95;45.90;99499.00;1087774;54;19950;-80
2022/09/09 09:01:08;;;;;;;;;;;;;;;22.06;45.40;99499.25;1087823;54;19934;-81
2022/09/09 09:02:17;;;;;;;;;;;;;;;21.95;45.46;99499.00;1087563;54;19942;-81
2022/09/09 09:03:23;;;;;;;;;;;;;;;21.69;46.01;99504.84;1092304;39;20467;-82
2022/09/09 09:04:41;;;;;;;;;;;;;;;21.62;46.41;99500.31;1087720;54;19950;-79
2022/09/09 09:05:46;;;;;;;;;;;;;;;22.00;46.14;99494.75;1087354;54;19969;-80
2022/09/09 09:06:56;;;;;;;;;;;;;;;22.06;46.09;99493.81;1087368;54;20002;-82
2022/09/09 09:08:03;;;;;;;;;;;;;;;22.19;45.92;99492.75;1087379;54;19943;-81
2022/09/09 09:09:14;;;;;;;;;;;;;;;22.40;45.75;99488.66;1087425;54;19943;-81
2022/09/09 09:10:24;;;;;;;;;;;;;;;22.58;45.30;99495.88;1087416;54;19943;-82
2022/09/09 09:11:25;;;;;;;;;;;;;;;22.65;45.46;99493.03;1087401;54;19949;-80
2022/09/09 09:12:31;;;;;;;;;;;;;;;22.79;45.16;99491.72;1087294;54;19950;-80
2022/09/09 09:13:36;;;;;;;;;;;;;;;22.83;44.86;99494.78;1087163;54;19949;-81
2022/09/09 09:14:41;;;;;;;;;;;;;;;22.98;44.28;99494.28;1087368;54;19934;-80
2022/09/09 09:15:44;;;;;;;;;;;;;;;22.98;44.62;99491.56;1087440;54;19943;-80
2022/09/09 09:16:51;;;;;;;;;;;;;;;22.96;44.95;99496.41;1093321;39;20650;-80
2022/09/09 09:17:52;;;;;;;;;;;;;;;23.15;44.94;99495.19;1087259;54;19942;-80
2022/09/09 09:18:57;;;;;;;;;;;;;;;23.43;44.59;99490.84;1087440;54;20013;-81
2022/09/09 09:19:59;;;;;;;;;;;;;;;23.18;44.18;99493.91;1087392;54;19949;-80
2022/09/09 09:21:07;;;;;;;;;;;;;;;22.79;45.18;99502.59;1087488;54;19943;-80
2022/09/09 09:22:15;;;;;;;;;;;;;;;22.55;45.42;99494.47;1087487;54;19971;-80
2022/09/09 09:23:23;;;;;;;;;;;;;;;22.36;46.19;99491.00;1087800;54;19943;-82
2022/09/09 09:24:37;;;;;;;;;;;;;;;22.50;45.98;99485.34;1087562;54;19954;-80
2022/09/09 09:25:44;;;;;;;;;;;;;;;22.49;45.93;99486.41;1087665;54;19943;-80
2022/09/09 09:26:45;;;;;;;;;;;;;;;22.75;45.82;99483.19;1092929;39;20323;-80
2022/09/09 09:27:55;;;;;;;;;;;;;;;23.14;44.84;99474.47;1087455;54;19946;-81
2022/09/09 09:28:59;;;;;;;;;;;;;;;22.99;44.74;99471.41;1087980;46;19946;-81
2022/09/09 09:30:02;;;;;;;;;;;;;;;22.80;45.41;99481.66;1087450;54;20006;-81
2022/09/09 09:31:07;;;;;;;;;;;;;;;22.70;45.51;99477.66;1087599;47;20000;-79
2022/09/09 09:32:10;;;;;;;;;;;;;;;22.59;45.75;99473.84;1086864;54;20133;-82
2022/09/09 09:33:18;;;;;;;;;;;;;;;22.35;45.62;99480.34;1087355;54;19943;-81
2022/09/09 09:34:23;;;;;;;;;;;;;;;22.57;45.17;99477.88;1087290;54;19965;-81
2022/09/09 09:35:24;;;;;;;;;;;;;;;22.56;45.25;99477.06;1087233;54;19961;-81
2022/09/09 09:36:36;;;;;;;;;;;;;;;22.44;45.56;99471.59;1087298;54;19949;-83
2022/09/09 09:37:40;;;;;;;;;;;;;;;22.25;45.97;99476.31;1087306;54;19960;-80
2022/09/09 09:38:54;;;;;;;;;;;;;;;22.25;45.99;99472.75;1087286;54;19943;-82
2022/09/09 09:40:10;;;;;;;;;;;;;;;22.29;46.35;99474.75;1087281;54;20035;-80
2022/09/09 09:41:11;;;;;;;;;;;;;;;22.26;47.10;99477.97;1087337;54;21206;-80
2022/09/09 09:42:17;;;;;;;;;;;;;;;22.27;47.49;99476.06;1087258;54;19994;-79
2022/09/09 09:43:20;;;;;;;;;;;;;;;22.07;51.24;99492.75;1087393;54;19967;-80
2022/09/09 09:44:25;;;;;;;;;;;;;;;21.59;55.31;99502.66;1087796;54;19987;-81
2022/09/09 09:45:28;;;;;;;;;;;;;;;21.23;55.29;99501.63;1087664;54;19943;-80
2022/09/09 09:46:32;;;;;;;;;;;;;;;21.11;57.10;99505.13;1087705;54;19942;-81
2022/09/09 09:47:33;;;;;;;;;;;;;;;21.00;56.79;99503.19;1087609;54;19942;-81
2022/09/09 09:48:37;;;;;;;;;;;;;;;20.78;56.89;99505.50;1090278;31;20597;-80
2022/09/09 09:49:50;;;;;;;;;;;;;;;20.63;58.21;99498.50;1087679;54;19935;-82
2022/09/09 09:50:55;;;;;;;;;;;;;;;20.67;57.82;99504.31;1087695;54;19950;-80
2022/09/09 09:52:02;;;;;;;;;;;;;;;20.49;57.79;99503.25;1087604;54;19946;-81
2022/09/09 09:53:04;;;;;;;;;;;;;;;20.30;57.96;99499.66;1087618;54;19946;-81
2022/09/09 09:54:13;;;;;;;;;;;;;;;20.37;58.45;99505.00;1087662;54;19943;-81
2022/09/09 09:55:16;;;;;;;;;;;;;;;20.16;57.96;99498.94;1087543;54;19927;-81
2022/09/09 09:56:28;;;;;;;;;;;;;;;19.96;57.54;99509.94;1087681;54;19967;-81
2022/09/09 09:57:31;;;;;;;;;;;;;;;20.05;58.96;99507.81;1087551;54;19943;-82
2022/09/09 09:58:36;;;;;;;;;;;;;;;19.93;57.80;99504.97;1087645;54;19987;-82
2022/09/09 09:59:39;;;;;;;;;;;;;;;20.00;58.65;99505.75;1087616;54;19967;-80
2022/09/09 10:00:50;;;;;;;;;;;;;;;19.80;58.32;99512.09;1087614;54;19957;-83
2022/09/09 10:01:51;;;;;;;;;;;;;;;19.82;57.27;99505.63;1087647;54;20002;-81
2022/09/09 10:02:56;;;;;;;;;;;;;;;19.69;55.46;99510.09;1088636;39;20442;-83
2022/09/09 10:03:58;;;;;;;;;;;;;;;19.70;55.10;99511.75;1087617;54;19943;-83
2022/09/09 10:05:06;;;;;;;;;;;;;;;19.70;53.97;99506.31;1087622;54;19943;-82